Latest Weather Observations for Thredbo Top Station

IDN60801

Issued at 10:03 pm EDT Friday 24 November 2017 (issued every 30 minutes, with the page automatically refreshed every 10 minutes)

About weather observations | Map of weather stations | Latest weather observations for NSW | Other Formats
Station Details ID: 071032 Name: THREDBO AWS Lat: -36.49 Lon: 148.29 Height: 1957.0 m
Data from the previous 72 hours. | See also: Recent months at Thredbo Top Station
Date/Time
EDT
Temp
°C
App
Temp
°C
Dew
Point
°C
Rel
Hum
%
Delta-T
°C
Wind Press
QNH
hPa
Press
MSL
hPa
Rain since
9am
mm
Dir  Spd
km/h
Gust
km/h
Spd
kts
Gust
kts
24/10:00pm 6.8 1.2 5.4 91 0.7 N 24 28 13 15 1025.6 1020.8 3.2
24/09:30pm 7.6 2.0 5.4 86 1.1 N 24 32 13 17 1025.3 1020.5 3.2
24/09:00pm 7.2 1.7 6.0 92 0.6 NNE 24 30 13 16 1025.2 1020.4 3.2
24/08:30pm 7.2 3.1 6.1 93 0.6 NNE 17 24 9 13 1025.6 1020.8 3.2
24/08:00pm 7.3 3.0 6.9 97 0.2 NE 19 26 10 14 1025.0 1020.1 3.2
24/07:30pm 7.7 5.9 7.1 96 0.3 N 6 15 3 8 1025.7 1020.9 3.0
24/07:00pm 7.9 6.1 7.1 95 0.4 S 6 19 3 10 1025.6 1020.8 2.4
24/06:30pm 8.5 6.5 7.0 90 0.8 SSE 7 26 4 14 1024.8 1020.0 1.8
24/06:00pm 8.8 6.4 7.1 89 0.9 S 9 24 5 13 1024.6 1019.7 0.8
24/05:30pm 10.7 7.3 5.9 72 2.5 SSE 13 24 7 13 1024.2 1019.4 0.0
24/05:00pm 14.5 11.3 6.8 60 4.2 WSW 13 19 7 10 1023.6 1018.7 0.0
24/04:30pm 15.2 10.6 6.5 56 4.7 NW 20 32 11 17 1023.0 1018.1 0.0
24/04:00pm 16.0 12.4 6.7 54 5.1 W 15 28 8 15 1023.1 1018.2 0.0
24/03:30pm 15.1 10.7 5.0 51 5.3 WNW 17 32 9 17 1023.3 1018.4 0.0
24/03:00pm 15.9 10.5 4.6 47 5.9 NW 22 41 12 22 1023.3 1018.4 0.0
24/02:30pm 16.7 11.8 5.3 47 6.1 WNW 20 32 11 17 1023.6 1018.7 0.0
24/02:00pm 16.5 12.3 5.8 49 5.7 WNW 17 35 9 19 1024.0 1019.1 0.0
24/01:30pm 16.7 11.7 4.4 44 6.4 WNW 20 33 11 18 1024.3 1019.5 0.0
24/01:00pm 17.0 12.3 6.2 49 5.8 WNW 20 30 11 16 1024.5 1019.6 0.0
24/12:30pm 16.5 12.1 4.9 46 6.1 W 17 30 9 16 1024.7 1019.9 0.0
24/12:00pm 16.0 11.3 5.3 49 5.7 WNW 19 28 10 15 1024.7 1019.9 0.0
24/11:30am 14.7 10.1 5.5 54 4.9 WNW 19 32 10 17 1024.7 1019.9 0.0
24/11:00am 13.9 7.7 6.0 59 4.2 NNW 28 39 15 21 1024.5 1019.6 0.0
24/10:30am 13.0 5.5 6.4 64 3.5 NNW 35 44 19 24 1024.0 1019.1 0.0
24/10:00am 12.3 3.5 5.7 64 3.4 NNW 41 48 22 26 1023.6 1018.7 0.0
24/09:30am 11.7 2.4 5.1 64 3.4 NNW 43 54 23 29 1023.3 1018.4 0.0
24/09:00am 11.6 2.2 5.5 66 3.1 NNW 44 50 24 27 1023.3 1018.4 4.0
24/08:30am 11.4 2.6 5.5 67 3.1 NW 41 50 22 27 1023.4 1018.5 4.0
24/08:00am 11.2 2.4 5.5 68 2.9 NW 41 50 22 27 1023.0 1018.1 4.0
24/07:30am 10.8 2.7 5.1 68 2.9 NW 37 44 20 24 1022.9 1018.0 4.0
24/07:00am 10.2 2.4 5.0 70 2.6 NW 35 43 19 23 1022.5 1017.6 4.0
24/06:30am 9.8 2.0 4.8 71 2.5 NW 35 43 19 23 1022.3 1017.4 4.0
24/06:00am 9.6 1.0 4.4 70 2.6 NW 39 44 21 24 1021.8 1016.8 4.0
24/05:30am 9.4 0.8 4.4 71 2.5 NW 39 48 21 26 1021.6 1016.6 4.0
24/05:00am 9.0 0.0 4.6 74 2.2 NW 41 46 22 25 1021.2 1016.2 4.0
24/04:30am 9.3 0.3 4.3 71 2.5 NW 41 48 22 26 1020.7 1015.7 4.0
24/04:00am 9.5 1.2 4.1 69 2.7 NW 37 43 20 23 1020.7 1015.7 4.0
24/03:30am 9.6 2.3 4.6 71 2.5 NW 32 35 17 19 1021.0 1016.0 4.0
24/03:00am 9.4 2.0 4.0 69 2.7 NW 32 37 17 20 1021.0 1016.0 4.0
24/02:30am 9.2 2.7 4.6 73 2.3 NW 28 32 15 17 1021.2 1016.2 4.0
24/02:00am 7.9 2.8 3.9 76 1.9 NW 20 24 11 13 1021.3 1016.3 4.0
24/01:30am 7.3 2.6 3.2 75 2.0 NW 17 20 9 11 1021.4 1016.5 4.0
24/01:00am 7.4 2.8 3.5 76 1.9 WNW 17 19 9 10 1021.7 1016.7 4.0
24/12:30am 7.7 3.7 2.8 71 2.3 WNW 13 15 7 8 1022.0 1017.1 4.0
24/12:00am 8.7 5.4 2.5 65 2.9 WSW 9 11 5 6 1022.3 1017.4 4.0
 
Date/Time
EDT
Temp
°C
App
Temp
°C
Dew
Point
°C
Rel
Hum
%
Delta-T
°C
Wind Press
QNH
hPa
Press
MSL
hPa
Rain since
9am
mm
Dir  Spd
km/h
Gust
km/h
Spd
kts
Gust
kts
23/11:30pm 8.8 5.1 2.4 64 3.0 WSW 11 11 6 6 1022.2 1017.2 4.0
23/11:00pm 7.2 3.8 4.2 81 1.5 NW 11 19 6 10 1022.2 1017.2 4.0
23/10:30pm 6.3 3.0 4.8 90 0.7 NNW 11 15 6 8 1022.4 1017.5 4.0
23/10:00pm 6.5 3.6 4.8 89 0.8 SW 9 13 5 7 1022.8 1017.9 4.0
23/09:30pm 7.1 4.7 5.3 88 0.9 S 7 17 4 9 1023.0 1018.1 4.0
23/09:00pm 7.3 4.9 5.1 86 1.1 SSW 7 17 4 9 1022.8 1017.9 3.8
23/08:30pm 6.5 4.8 5.9 96 0.3 NNW 4 7 2 4 1022.3 1017.4 3.8
23/08:00pm 6.5 4.5 6.1 97 0.2 ENE 6 9 3 5 1022.0 1017.1 3.8
23/07:30pm 6.6 4.0 6.2 97 0.2 E 9 15 5 8 1021.9 1017.0 3.8
23/07:00pm 6.8 3.9 6.4 97 0.2 ESE 11 19 6 10 1021.8 1016.8 3.8
23/06:30pm 7.1 3.9 6.7 97 0.2 ESE 13 26 7 14 1021.7 1016.7 3.2
23/06:00pm 8.4 6.3 6.0 85 1.2 SE 6 17 3 9 1021.2 1016.2 0.0
23/05:30pm 10.3 4.3 7.2 81 1.6 NW 28 43 15 23 1020.2 1015.2 0.0
23/05:00pm 12.1 7.6 6.2 67 3.1 WNW 19 28 10 15 1020.7 1015.7 0.0
23/04:30pm 11.3 6.5 5.4 67 3.0 WNW 20 30 11 16 1020.8 1015.8 0.0
23/04:00pm 11.7 6.3 6.2 69 2.9 WNW 24 39 13 21 1021.0 1016.0 0.0
23/03:30pm 11.9 3.9 5.5 65 3.3 NW 37 46 20 25 1020.1 1015.1 0.0
23/03:00pm 11.5 3.1 5.4 66 3.1 NW 39 61 21 33 1020.0 1015.0 0.0
23/02:35pm 11.2 3.9 5.3 67 3.0 NW 33 52 18 28 1020.2 1015.2 0.0
23/02:30pm 11.4 4.3 5.3 66 3.1 NW 32 43 17 23 1020.5 1015.5 0.0
23/02:00pm 12.4 4.5 6.0 65 3.4 NW 37 46 20 25 1020.5 1015.5 0.0
23/01:30pm 11.4 4.7 5.7 68 3.0 NW 30 43 16 23 1021.2 1016.2 0.0
23/01:00pm 11.7 4.7 6.0 68 3.0 NW 32 43 17 23 1021.6 1016.6 0.0
23/12:30pm 12.4 5.7 7.3 71 2.8 NW 32 43 17 23 1021.9 1017.0 0.0
23/12:00pm 12.7 5.8 6.5 66 3.3 NW 32 44 17 24 1021.9 1017.0 0.0
23/11:30am 12.0 4.6 6.7 70 2.8 NW 35 43 19 23 1021.9 1017.0 0.0
23/11:00am 11.8 4.4 6.7 71 2.7 NW 35 54 19 29 1021.9 1017.0 0.0
23/10:30am 11.7 3.3 5.8 67 3.1 NW 39 52 21 28 1021.7 1016.7 0.0
23/10:00am 9.8 0.8 6.3 79 1.8 NW 43 54 23 29 1021.2 1016.2 0.0
23/09:30am 9.0 1.5 4.4 73 2.3 NW 33 44 18 24 1021.4 1016.5 0.0
23/09:00am 9.0 1.5 4.2 72 2.4 NW 33 44 18 24 1021.3 1016.3 0.0
23/08:30am 9.8 2.4 3.8 66 3.0 NW 32 41 17 22 1021.2 1016.2 0.0
23/08:00am 9.8 2.2 4.0 67 2.9 NW 33 44 18 24 1021.1 1016.1 0.0
23/07:30am 8.7 1.0 3.5 70 2.5 NW 33 41 18 22 1020.8 1015.8 0.0
23/07:00am 8.5 0.6 2.5 66 2.8 NW 33 41 18 22 1020.7 1015.7 0.0
23/06:30am 8.7 0.8 2.5 65 2.9 NW 33 41 18 22 1020.5 1015.5 0.0
23/06:00am 8.4 0.8 3.1 69 2.5 NW 32 41 17 22 1020.4 1015.3 0.0
23/05:30am 8.5 1.3 2.9 68 2.7 NW 30 35 16 19 1020.4 1015.3 0.0
23/05:00am 8.6 0.9 2.4 65 2.9 NW 32 37 17 20 1020.1 1015.1 0.0
23/04:30am 8.6 0.8 2.0 63 3.1 NW 32 37 17 20 1020.1 1015.1 0.0
23/04:00am 8.6 1.3 2.4 65 2.9 NW 30 35 16 19 1020.1 1015.1 0.0
23/03:30am 9.2 1.7 3.6 68 2.7 NW 32 39 17 21 1020.0 1015.0 0.0
23/03:00am 9.1 2.1 3.9 70 2.6 NW 30 35 16 19 1020.2 1015.2 0.0
23/02:30am 8.8 2.2 4.2 73 2.3 NW 28 35 15 19 1020.6 1015.6 0.0
23/02:00am 8.9 2.5 5.3 78 1.8 NW 28 33 15 18 1020.8 1015.8 0.0
23/01:30am 9.2 1.7 4.6 73 2.3 NW 33 39 18 21 1021.0 1016.0 0.0
23/01:00am 9.2 2.3 4.6 73 2.3 NW 30 33 16 18 1021.3 1016.3 0.0
23/12:30am 8.8 2.1 3.8 71 2.4 NW 28 32 15 17 1021.7 1016.7 0.0
23/12:00am 8.5 3.0 3.9 73 2.2 NW 22 26 12 14 1021.9 1017.0 0.0
 
Date/Time
EDT
Temp
°C
App
Temp
°C
Dew
Point
°C
Rel
Hum
%
Delta-T
°C
Wind Press
QNH
hPa
Press
MSL
hPa
Rain since
9am
mm
Dir  Spd
km/h
Gust
km/h
Spd
kts
Gust
kts
22/11:30pm 7.8 3.2 3.7 75 2.0 WNW 17 19 9 10 1022.2 1017.2 0.0
22/11:00pm 8.0 3.4 3.8 75 2.0 WNW 17 19 9 10 1022.3 1017.4 0.0
22/10:30pm 7.7 3.5 3.7 76 1.9 WNW 15 17 8 9 1022.5 1017.6 0.0
22/10:00pm 8.6 3.7 5.0 78 1.8 WNW 20 24 11 13 1022.8 1017.9 0.0
22/09:30pm 8.4 3.9 4.0 74 2.2 WNW 17 22 9 12 1022.7 1017.7 0.0
22/09:00pm 9.6 5.5 4.4 70 2.6 WNW 15 22 8 12 1022.7 1017.7 0.0
22/08:30pm 8.2 5.2 6.0 86 1.1 NW 11 20 6 11 1022.5 1017.6 0.0
22/08:00pm 7.8 5.4 4.2 78 1.8 WNW 6 7 3 4 1022.4 1017.5 0.0
22/07:30pm 9.3 7.1 5.1 75 2.1 NNW 6 9 3 5 1022.3 1017.4 0.0
22/07:00pm 12.4 10.4 7.1 70 2.8 NW 7 11 4 6 1022.2 1017.2 0.0
22/06:30pm 13.1 11.2 6.9 66 3.3 WNW 6 7 3 4 1022.2 1017.2 0.0
22/06:00pm 11.2 8.1 7.3 77 2.1 WNW 13 20 7 11 1022.0 1017.1 0.0
22/05:30pm 13.0 11.1 6.6 65 3.4 S 6 11 3 6 1022.2 1017.2 0.0
22/05:00pm 13.0 10.5 6.6 65 3.4 WSW 9 13 5 7 1022.3 1017.4 0.0
22/04:30pm 13.6 10.7 6.5 62 3.8 WSW 11 19 6 10 1022.4 1017.5 0.0
22/04:00pm 13.0 9.2 7.5 69 3.0 WNW 17 22 9 12 1022.7 1017.7 0.0
22/03:30pm 13.6 10.1 8.7 72 2.7 W 17 24 9 13 1022.8 1017.9 0.0
22/03:00pm 14.3 12.2 5.7 56 4.5 NNE 6 11 3 6 1023.1 1018.2 0.0
22/02:30pm 15.3 13.8 9.2 67 3.5 W 7 13 4 7 1023.5 1018.6 0.0
22/02:00pm 14.1 12.0 8.1 67 3.3 S 9 19 5 10 1023.7 1018.9 0.0
22/01:30pm 14.1 10.6 7.4 64 3.7 SSW 15 24 8 13 1024.0 1019.1 0.0
22/01:00pm 14.0 11.4 5.9 58 4.3 SW 9 30 5 16 1024.2 1019.4 0.0
22/12:30pm 15.0 12.3 5.8 54 4.9 SSE 9 15 5 8 1024.5 1019.6 0.0
22/12:00pm 13.6 8.7 5.0 56 4.4 S 20 30 11 16 1024.7 1019.9 0.0
22/11:30am 14.2 9.9 5.3 55 4.7 SSW 17 33 9 18 1024.7 1019.9 0.0
22/11:00am 14.7 11.2 7.0 60 4.2 SSW 15 28 8 15 1024.8 1020.0 0.0
22/10:30am 13.7 9.1 5.8 59 4.2 S 19 30 10 16 1025.0 1020.1 0.0
22/10:00am 13.6 9.2 4.7 55 4.6 SSW 17 26 9 14 1025.0 1020.1 0.0
22/09:30am 13.1 8.8 3.2 51 4.9 S 15 22 8 12 1025.1 1020.3 0.0
22/09:00am 13.1 9.3 3.7 53 4.7 SSE 13 20 7 11 1025.2 1020.4 0.0
22/08:30am 12.2 8.5 4.2 58 4.0 S 13 19 7 10 1025.3 1020.5 0.0
22/08:00am 12.2 8.2 4.7 60 3.8 SSE 15 22 8 12 1025.2 1020.4 0.0
22/07:30am 11.7 8.1 3.2 56 4.2 S 11 19 6 10 1025.2 1020.4 0.0
22/07:00am 11.0 7.6 4.0 62 3.5 SSW 11 17 6 9 1025.0 1020.1 0.0
22/06:30am 9.7 6.2 3.7 66 3.0 SW 11 13 6 7 1024.8 1020.0 0.0
22/06:00am 8.1 4.4 2.6 68 2.6 SW 11 13 6 7 1024.8 1020.0 0.0
22/05:30am 7.4 3.6 1.7 67 2.6 SW 11 15 6 8 1024.7 1019.9 0.0
22/05:00am 7.5 4.0 1.4 65 2.8 WSW 9 11 5 6 1024.6 1019.7 0.0
22/04:30am 8.1 4.0 2.4 67 2.7 W 13 17 7 9 1024.6 1019.7 0.0
22/04:00am 8.3 4.8 1.2 61 3.3 WSW 9 11 5 6 1024.6 1019.7 0.0
22/03:30am 8.4 5.3 1.3 61 3.3 W 7 9 4 5 1024.7 1019.9 0.0
22/03:00am 5.6 2.7 1.5 75 1.8 NW 6 9 3 5 1025.1 1020.3 0.0
22/02:30am 5.8 3.3 1.5 74 1.9 NW 4 7 2 4 1025.2 1020.4 0.0
22/02:00am 7.0 4.3 2.5 73 2.1 W 6 7 3 4 1025.4 1020.6 0.0
22/01:30am 5.8 3.3 1.3 73 2.0 W 4 4 2 2 1025.7 1020.9 0.0
22/01:00am 5.5 2.0 1.4 75 1.8 WNW 9 11 5 6 1026.0 1021.3 0.0
22/12:30am 5.5 2.4 1.6 76 1.8 NW 7 9 4 5 1026.2 1021.4 0.0
22/12:00am 6.1 3.1 2.0 75 1.9 NW 7 9 4 5 1026.5 1021.8 0.0
 
Date/Time
EDT
Temp
°C
App
Temp
°C
Dew
Point
°C
Rel
Hum
%
Delta-T
°C
Wind Press
QNH
hPa
Press
MSL
hPa
Rain since
9am
mm
Dir  Spd
km/h
Gust
km/h
Spd
kts
Gust
kts
21/11:30pm 6.4 2.8 3.0 79 1.6 NW 11 13 6 7 1026.9 1022.1 0.0
21/11:00pm 6.6 3.1 3.6 81 1.4 NW 11 13 6 7 1027.1 1022.4 0.0
21/10:30pm 5.7 1.5 1.4 74 1.9 NW 13 19 7 10 1027.3 1022.5 0.0

Other Formats:

Comma delimited format used in spreadsheet applications
http://www.bom.gov.au/fwo/IDN60801/IDN60801.95909.axf

JavaScript Object Notation format (JSON) in row-major order
http://www.bom.gov.au/fwo/IDN60801/IDN60801.95909.json